Time,TemperatureF,DewpointF,PressureIn,WindDirection,WindDirectionDegrees,WindSpeedMPH,WindSpeedGustMPH,Humidity,HourlyPrecipIn,Conditions,Clouds,dailyrainin,SoftwareType,DateUTC
2013-05-27 00:00:00,71.9,66.5,30.03,North,0,0.0,0.0,83,0.00,,CLR,0.00,VWS V14.01,2013-05-27 05:00:00,
2013-05-27 00:10:00,71.6,66.5,30.03,North,0,0.0,0.0,84,0.00,,CLR,0.00,VWS V14.01,2013-05-27 05:10:00,
2013-05-27 00:20:00,71.4,66.7,30.03,North,0,0.0,0.0,85,0.00,,CLR,0.00,VWS V14.01,2013-05-27 05:20:00,
2013-05-27 00:30:00,71.1,66.7,30.03,North,0,0.0,0.0,86,0.00,,CLR,0.00,VWS V14.01,2013-05-27 05:30:00,
2013-05-27 00:40:00,70.9,66.8,30.03,North,0,0.0,0.0,87,0.00,,CLR,0.00,VWS V14.01,2013-05-27 05:40:00,
2013-05-27 00:50:00,70.7,67.0,30.03,North,0,0.0,0.0,88,0.00,,CLR,0.00,VWS V14.01,2013-05-27 05:50:00,
2013-05-27 01:00:00,70.6,66.9,30.02,North,0,0.0,0.0,88,0.00,,CLR,0.00,VWS V14.01,2013-05-27 06:00:00,
2013-05-27 01:10:00,70.7,67.3,30.02,North,0,0.0,0.0,89,0.00,,CLR,0.00,VWS V14.01,2013-05-27 06:10:00,
2013-05-27 01:20:00,70.9,67.5,30.02,North,0,0.0,0.0,89,0.00,,CLR,0.00,VWS V14.01,2013-05-27 06:20:00,
2013-05-27 01:30:00,71.0,67.6,30.01,North,0,0.0,0.0,89,0.00,,CLR,0.00,VWS V14.01,2013-05-27 06:30:00,
2013-05-27 01:40:00,71.2,67.8,30.01,North,0,0.0,0.0,89,0.00,,CLR,0.00,VWS V14.01,2013-05-27 06:40:00,
2013-05-27 01:50:00,71.4,68.0,30.00,North,0,0.0,0.0,89,0.00,,CLR,0.00,VWS V14.01,2013-05-27 06:50:00,
2013-05-27 02:00:00,71.5,68.1,30.00,North,0,0.0,0.0,89,0.00,,CLR,0.00,VWS V14.01,2013-05-27 07:00:00,
2013-05-27 02:10:00,71.7,68.3,30.00,North,0,0.0,0.0,89,0.00,,CLR,0.00,VWS V14.01,2013-05-27 07:10:00,
2013-05-27 02:20:00,72.0,68.3,29.99,North,0,0.0,0.0,88,0.00,,CLR,0.00,VWS V14.01,2013-05-27 07:20:00,
2013-05-27 02:30:00,71.8,68.1,29.99,North,0,0.0,0.0,88,0.00,,CLR,0.00,VWS V14.01,2013-05-27 07:30:00,
2013-05-27 02:40:00,71.6,67.9,29.99,North,0,0.0,0.0,88,0.00,,CLR,0.00,VWS V14.01,2013-05-27 07:40:00,
2013-05-27 02:50:00,71.5,68.1,29.98,North,0,0.0,0.0,89,0.00,,CLR,0.00,VWS V14.01,2013-05-27 07:50:00,
2013-05-27 03:00:00,71.5,68.1,29.98,North,0,0.0,0.0,89,0.00,,CLR,0.00,VWS V14.01,2013-05-27 08:00:00,
2013-05-27 03:10:00,71.3,68.2,29.98,North,0,0.0,0.0,90,0.00,,CLR,0.00,VWS V14.01,2013-05-27 08:10:00,
2013-05-27 03:20:00,71.3,68.2,29.98,North,0,0.0,0.0,90,0.00,,CLR,0.00,VWS V14.01,2013-05-27 08:20:00,
2013-05-27 03:30:00,71.5,68.4,29.98,North,0,0.0,0.0,90,0.00,,CLR,0.00,VWS V14.01,2013-05-27 08:30:00,
2013-05-27 03:40:00,71.5,68.4,29.98,North,0,0.0,0.0,90,0.00,,CLR,0.00,VWS V14.01,2013-05-27 08:40:00,
2013-05-27 03:50:00,71.5,68.7,29.97,North,0,0.0,0.0,91,0.00,,CLR,0.00,VWS V14.01,2013-05-27 08:50:00,
2013-05-27 04:00:00,71.6,68.8,29.97,NW,315,0.0,1.0,91,0.00,,CLR,0.00,VWS V14.01,2013-05-27 09:00:00,
2013-05-27 04:10:00,71.8,69.0,29.97,NW,315,0.0,1.0,91,0.00,,CLR,0.00,VWS V14.01,2013-05-27 09:10:00,
2013-05-27 04:20:00,71.8,69.0,29.97,NW,315,0.0,0.0,91,0.00,,CLR,0.00,VWS V14.01,2013-05-27 09:20:00,
2013-05-27 04:30:00,72.0,69.2,29.97,NW,315,0.0,1.0,91,0.00,,CLR,0.00,VWS V14.01,2013-05-27 09:30:00,
2013-05-27 04:40:00,72.0,69.2,29.97,NW,315,0.0,0.0,91,0.00,,CLR,0.00,VWS V14.01,2013-05-27 09:40:00,
2013-05-27 04:50:00,72.0,69.2,29.97,NW,315,0.0,0.0,91,0.00,,CLR,0.00,VWS V14.01,2013-05-27 09:50:00,
2013-05-27 05:00:00,72.0,69.2,29.97,NW,315,0.0,1.0,91,0.00,,CLR,0.00,VWS V14.01,2013-05-27 10:00:00,
2013-05-27 05:10:00,72.0,69.2,29.97,NW,315,0.0,0.0,91,0.00,,CLR,0.00,VWS V14.01,2013-05-27 10:10:00,
2013-05-27 05:20:00,72.1,69.3,29.97,NW,315,0.0,0.0,91,0.00,,CLR,0.00,VWS V14.01,2013-05-27 10:20:00,
2013-05-27 05:30:00,72.2,69.4,29.97,NW,315,0.0,0.0,91,0.00,,CLR,0.00,VWS V14.01,2013-05-27 10:30:00,
2013-05-27 05:40:00,72.2,69.1,29.97,NW,315,0.0,0.0,90,0.00,,CLR,0.00,VWS V14.01,2013-05-27 10:40:00,
2013-05-27 05:50:00,72.2,69.1,29.97,NW,315,0.0,0.0,90,0.00,,CLR,0.00,VWS V14.01,2013-05-27 10:50:00,
2013-05-27 06:00:00,72.2,69.1,29.97,NW,315,0.0,0.0,90,0.00,,CLR,0.00,VWS V14.01,2013-05-27 11:00:00,
2013-05-27 06:10:00,72.0,68.9,29.97,NW,315,0.0,0.0,90,0.00,,CLR,0.00,VWS V14.01,2013-05-27 11:10:00,
2013-05-27 06:20:00,72.0,68.9,29.96,NW,315,0.0,1.0,90,0.00,,CLR,0.00,VWS V14.01,2013-05-27 11:20:00,
2013-05-27 06:30:00,72.0,68.9,29.97,NW,315,0.0,1.0,90,0.00,,CLR,0.00,VWS V14.01,2013-05-27 11:30:00,
2013-05-27 06:40:00,72.0,69.2,29.97,NW,315,0.0,1.0,91,0.00,,CLR,0.00,VWS V14.01,2013-05-27 11:40:00,
2013-05-27 06:50:00,72.0,68.9,29.98,NW,315,0.0,1.0,90,0.00,,CLR,0.00,VWS V14.01,2013-05-27 11:50:00,
2013-05-27 07:00:00,72.0,68.9,29.98,NW,315,0.0,0.0,90,0.00,,CLR,0.00,VWS V14.01,2013-05-27 12:00:00,
2013-05-27 07:10:00,72.0,68.9,29.98,NW,315,0.0,1.0,90,0.00,,CLR,0.00,VWS V14.01,2013-05-27 12:10:00,
2013-05-27 07:20:00,72.2,69.1,29.97,NW,315,0.0,0.0,90,0.00,,CLR,0.00,VWS V14.01,2013-05-27 12:20:00,
2013-05-27 07:30:00,72.2,69.1,29.98,NW,315,0.0,1.0,90,0.00,,CLR,0.00,VWS V14.01,2013-05-27 12:30:00,
2013-05-27 07:40:00,72.3,69.2,29.98,NW,315,0.0,1.0,90,0.00,,CLR,0.00,VWS V14.01,2013-05-27 12:40:00,
2013-05-27 07:50:00,72.5,69.4,29.98,NW,315,0.0,1.0,90,0.00,,CLR,0.00,VWS V14.01,2013-05-27 12:50:00,
2013-05-27 08:00:00,72.7,69.3,29.98,NW,315,0.0,1.0,89,0.00,,CLR,0.00,VWS V14.01,2013-05-27 13:00:00,
2013-05-27 08:10:00,72.8,69.4,29.98,NW,315,0.0,1.0,89,0.00,,CLR,0.00,VWS V14.01,2013-05-27 13:10:00,
2013-05-27 08:20:00,73.0,69.6,29.98,NW,315,0.0,1.0,89,0.00,,CLR,0.00,VWS V14.01,2013-05-27 13:20:00,
2013-05-27 08:27:00,73.0,69.6,29.98,NW,315,0.0,1.0,89,0.00,,CLR,0.00,VWS V14.01,2013-05-27 13:27:00,
2013-05-27 08:30:00,72.2,69.1,29.98,NW,315,0.0,1.0,90,0.00,,CLR,0.00,VWS V15.00,2013-05-27 13:30:00,
2013-05-27 08:32:00,73.9,70.1,29.98,NW,322,0.0,1.0,88,0.00,,CLR,0.00,VWS V14.01,2013-05-27 13:32:00,
2013-05-27 08:37:00,74.1,70.0,29.98,NW,322,0.0,1.0,87,0.00,,OVC012,0.00,VWS V14.01,2013-05-27 13:37:00,
2013-05-27 08:40:00,73.7,69.9,29.97,NW,322,0.0,0.0,88,0.00,,CLR,0.00,VWS V14.01,2013-05-27 13:40:00,
2013-05-27 08:42:00,74.2,70.1,29.98,NW,322,0.0,0.0,87,0.00,,OVC012,0.00,VWS V14.01,2013-05-27 13:42:00,
2013-05-27 08:47:00,74.4,69.9,29.98,NW,322,0.0,1.0,86,0.00,,OVC012,0.00,VWS V14.01,2013-05-27 13:47:00,
2013-05-27 08:50:00,74.1,70.0,29.98,NW,322,0.0,1.0,87,0.00,,CLR,0.00,VWS V14.01,2013-05-27 13:50:00,
2013-05-27 08:52:00,74.8,70.3,29.98,NW,318,0.0,1.0,86,0.00,,OVC012,0.00,VWS V14.01,2013-05-27 13:52:00,
2013-05-27 08:57:00,75.1,70.3,29.98,NW,318,0.0,1.0,85,0.00,,OVC012,0.00,VWS V14.01,2013-05-27 13:57:00,
2013-05-27 09:00:00,74.4,69.9,29.98,NW,322,0.0,1.0,86,0.00,,CLR,0.00,VWS V14.01,2013-05-27 14:00:00,
2013-05-27 09:02:00,75.6,70.4,29.98,NW,318,0.0,0.0,84,0.00,,OVC012,0.00,VWS V14.01,2013-05-27 14:02:00,
2013-05-27 09:07:00,75.8,70.3,29.98,NW,318,0.0,1.0,83,0.00,,OVC014,0.00,VWS V14.01,2013-05-27 14:07:00,
2013-05-27 09:10:00,75.1,70.3,29.98,NW,318,0.0,1.0,85,0.00,,CLR,0.00,VWS V14.01,2013-05-27 14:10:00,
2013-05-27 09:12:00,76.0,70.1,29.98,South,177,0.0,0.0,82,0.00,,OVC014,0.00,VWS V14.01,2013-05-27 14:12:00,
2013-05-27 09:17:00,76.2,69.9,29.98,NNW,332,0.0,0.0,81,0.00,,OVC014,0.00,VWS V14.01,2013-05-27 14:17:00,
2013-05-27 09:20:00,75.8,70.3,29.98,NE,39,0.0,1.0,83,0.00,,CLR,0.00,VWS V14.01,2013-05-27 14:20:00,
2013-05-27 09:22:00,76.5,70.2,29.98,NNW,333,1.0,1.0,81,0.00,,OVC014,0.00,VWS V14.01,2013-05-27 14:22:00,
2013-05-27 09:27:00,76.5,69.9,29.98,NNW,334,0.0,1.0,80,0.00,,OVC014,0.00,VWS V14.01,2013-05-27 14:27:00,
2013-05-27 09:30:00,76.2,69.9,29.98,NNW,332,1.0,1.0,81,0.00,,CLR,0.00,VWS V14.01,2013-05-27 14:30:00,
2013-05-27 09:32:00,76.7,70.1,29.98,NNW,335,0.0,1.0,80,0.00,,OVC014,0.00,VWS V14.01,2013-05-27 14:32:00,
2013-05-27 09:37:00,76.5,69.5,29.98,NNW,335,0.0,1.0,79,0.00,,OVC014,0.00,VWS V14.01,2013-05-27 14:37:00,
2013-05-27 09:40:00,76.5,69.9,29.98,NNW,335,0.0,1.0,80,0.00,,CLR,0.00,VWS V14.01,2013-05-27 14:40:00,
2013-05-27 09:42:00,76.5,69.9,29.98,NNW,335,0.0,1.0,80,0.00,,OVC036,0.00,VWS V14.01,2013-05-27 14:42:00,
2013-05-27 09:47:00,76.5,69.9,29.98,NNW,334,0.0,1.0,80,0.00,,OVC036,0.00,VWS V14.01,2013-05-27 14:47:00,
2013-05-27 09:50:00,76.5,69.9,29.98,NNW,334,0.0,1.0,80,0.00,,CLR,0.00,VWS V14.01,2013-05-27 14:50:00,
2013-05-27 09:52:00,76.3,69.7,29.98,NNW,334,0.0,0.0,80,0.00,,OVC036,0.00,VWS V14.01,2013-05-27 14:52:00,
2013-05-27 09:57:00,76.5,69.9,29.98,NNW,335,0.0,0.0,80,0.00,,OVC036,0.00,VWS V14.01,2013-05-27 14:57:00,
2013-05-27 10:00:00,76.5,69.9,29.98,NNW,335,0.0,1.0,80,0.00,,CLR,0.00,VWS V14.01,2013-05-27 15:00:00,
2013-05-27 10:02:00,76.5,69.5,29.98,NNW,334,0.0,1.0,79,0.00,,OVC036,0.00,VWS V14.01,2013-05-27 15:02:00,
2013-05-27 10:07:00,76.5,69.5,29.98,NNW,333,0.0,1.0,79,0.00,,BKN033,0.00,VWS V14.01,2013-05-27 15:07:00,
2013-05-27 10:10:00,76.5,69.9,29.98,NNW,335,0.0,0.0,80,0.00,,CLR,0.00,VWS V14.01,2013-05-27 15:10:00,
2013-05-27 10:12:00,76.7,69.7,29.98,NNW,333,0.0,1.0,79,0.00,,BKN033,0.00,VWS V14.01,2013-05-27 15:12:00,
2013-05-27 10:17:00,76.9,69.5,29.98,NNW,333,0.0,1.0,78,0.00,,BKN033,0.00,VWS V14.01,2013-05-27 15:17:00,
2013-05-27 10:20:00,76.5,69.5,29.98,NNW,333,0.0,1.0,79,0.00,,CLR,0.00,VWS V14.01,2013-05-27 15:20:00,
2013-05-27 10:22:00,76.9,69.5,29.98,NNW,329,0.0,1.0,78,0.00,,BKN033,0.00,VWS V14.01,2013-05-27 15:22:00,
2013-05-27 10:27:00,77.4,70.0,29.98,NNW,329,0.0,1.0,78,0.00,,BKN033,0.00,VWS V14.01,2013-05-27 15:27:00,
2013-05-27 10:30:00,76.9,69.9,29.98,NNW,333,0.0,1.0,79,0.00,,CLR,0.00,VWS V14.01,2013-05-27 15:30:00,
2013-05-27 10:32:00,78.0,71.0,29.98,NNW,329,0.0,1.0,79,0.00,,BKN033,0.00,VWS V14.01,2013-05-27 15:32:00,
2013-05-27 10:37:00,78.9,70.7,29.98,NNW,329,0.0,1.0,76,0.00,,BKN033,0.00,VWS V14.01,2013-05-27 15:37:00,
2013-05-27 10:40:00,77.4,70.0,29.98,NNW,329,0.0,1.0,78,0.00,,CLR,0.00,VWS V14.01,2013-05-27 15:40:00,
2013-05-27 10:42:00,79.4,70.4,29.98,NNW,329,0.0,0.0,74,0.00,,BKN039,0.00,VWS V14.01,2013-05-27 15:42:00,
2013-05-27 10:47:00,80.0,70.6,29.98,NNW,328,0.0,1.0,73,0.00,,BKN039,0.00,VWS V14.01,2013-05-27 15:47:00,
2013-05-27 10:50:00,78.9,70.7,29.98,NNW,329,0.0,1.0,76,0.00,,CLR,0.00,VWS V14.01,2013-05-27 15:50:00,
2013-05-27 10:52:00,80.2,70.4,29.98,South,178,0.0,1.0,72,0.00,,BKN039,0.00,VWS V14.01,2013-05-27 15:52:00,
2013-05-27 10:57:00,79.8,70.0,29.98,ESE,109,0.0,1.0,72,0.00,,BKN039,0.00,VWS V14.01,2013-05-27 15:57:00,
2013-05-27 11:00:00,80.0,70.2,29.98,NNW,328,0.0,1.0,72,0.00,,CLR,0.00,VWS V14.01,2013-05-27 16:00:00,
2013-05-27 11:02:00,80.2,71.2,29.98,NE,50,0.0,0.0,74,0.00,,BKN039,0.00,VWS V14.01,2013-05-27 16:02:00,
2013-05-27 11:07:00,81.3,70.2,29.98,ESE,109,0.0,0.0,69,0.00,,BKN041,0.00,VWS V14.01,2013-05-27 16:07:00,
2013-05-27 11:10:00,79.8,70.0,29.98,ESE,109,0.0,1.0,72,0.00,,CLR,0.00,VWS V14.01,2013-05-27 16:10:00,
2013-05-27 11:12:00,81.9,70.3,29.98,WNW,298,0.0,0.0,68,0.00,,BKN041,0.00,VWS V14.01,2013-05-27 16:12:00,
2013-05-27 11:16:00,81.7,69.7,29.98,West,273,0.0,0.0,67,0.00,,BKN041,0.00,VWS V14.01,2013-05-27 16:16:00,
2013-05-27 11:20:00,81.3,70.2,29.98,East,92,0.0,0.0,69,0.00,,CLR,0.00,VWS V14.01,2013-05-27 16:20:00,
2013-05-27 11:21:00,81.3,69.3,29.98,WNW,299,0.0,0.0,67,0.00,,BKN041,0.00,VWS V14.01,2013-05-27 16:21:00,
2013-05-27 11:26:00,80.9,69.8,29.98,WNW,299,0.0,0.0,69,0.00,,BKN041,0.00,VWS V14.01,2013-05-27 16:26:00,
2013-05-27 11:30:00,81.7,69.7,29.98,West,273,0.0,0.0,67,0.00,,CLR,0.00,VWS V14.01,2013-05-27 16:30:00,
2013-05-27 11:31:00,80.7,69.2,29.98,NNE,28,0.0,1.0,68,0.00,,BKN041,0.00,VWS V14.01,2013-05-27 16:31:00,
2013-05-27 11:36:00,81.1,70.4,29.98,SW,214,0.0,1.0,70,0.00,,BKN041,0.00,VWS V14.01,2013-05-27 16:36:00,
2013-05-27 11:40:00,80.9,70.2,29.98,WNW,299,0.0,0.0,70,0.00,,CLR,0.00,VWS V14.01,2013-05-27 16:40:00,
2013-05-27 11:41:00,81.1,69.6,29.98,SW,214,0.0,0.0,68,0.00,,BKN041,0.00,VWS V14.01,2013-05-27 16:41:00,
2013-05-27 11:46:00,81.3,70.2,29.98,SW,217,0.0,1.0,69,0.00,,BKN041,0.00,VWS V14.01,2013-05-27 16:46:00,
2013-05-27 11:50:00,81.1,70.4,29.98,SW,214,0.0,1.0,70,0.00,,CLR,0.00,VWS V14.01,2013-05-27 16:50:00,
2013-05-27 11:51:00,81.5,70.8,29.98,SW,215,0.0,0.0,70,0.00,,BKN041,0.00,VWS V14.01,2013-05-27 16:51:00,
2013-05-27 11:56:00,81.7,69.2,29.98,SSW,210,0.0,0.0,66,0.00,,BKN041,0.00,VWS V14.01,2013-05-27 16:56:00,
2013-05-27 12:00:00,81.3,69.7,29.98,SW,217,0.0,1.0,68,0.00,,CLR,0.00,VWS V14.01,2013-05-27 17:00:00,
2013-05-27 12:01:00,81.9,69.4,29.97,SSW,207,0.0,0.0,66,0.00,,BKN041,0.00,VWS V14.01,2013-05-27 17:01:00,
2013-05-27 12:06:00,82.1,70.5,29.97,SSW,194,0.0,0.0,68,0.00,,OVC049,0.00,VWS V14.01,2013-05-27 17:06:00,
2013-05-27 12:10:00,81.9,69.4,29.98,SSW,210,0.0,0.0,66,0.00,,CLR,0.00,VWS V14.01,2013-05-27 17:10:00,
2013-05-27 12:11:00,82.3,69.8,29.97,SSW,195,0.0,0.0,66,0.00,,OVC049,0.00,VWS V14.01,2013-05-27 17:11:00,
2013-05-27 12:16:00,82.1,69.6,29.98,South,181,0.0,0.0,66,0.00,,OVC049,0.00,VWS V14.01,2013-05-27 17:16:00,
2013-05-27 12:20:00,82.1,70.5,29.97,SSW,194,0.0,0.0,68,0.00,,CLR,0.00,VWS V14.01,2013-05-27 17:20:00,
2013-05-27 12:21:00,82.5,69.6,29.98,WNW,300,0.0,1.0,65,0.00,,OVC049,0.00,VWS V14.01,2013-05-27 17:21:00,
2013-05-27 12:26:00,82.7,70.2,29.98,WNW,300,0.0,1.0,66,0.00,,OVC049,0.00,VWS V14.01,2013-05-27 17:26:00,
2013-05-27 12:30:00,82.1,69.6,29.98,South,181,0.0,0.0,66,0.00,,CLR,0.00,VWS V14.01,2013-05-27 17:30:00,
2013-05-27 12:31:00,83.1,71.0,29.97,South,188,0.0,0.0,67,0.00,,OVC049,0.00,VWS V14.01,2013-05-27 17:31:00,
2013-05-27 12:36:00,83.6,70.6,29.97,SW,232,0.0,0.0,65,0.00,,OVC049,0.00,VWS V14.01,2013-05-27 17:36:00,
2013-05-27 12:40:00,82.7,70.2,29.98,WNW,300,0.0,1.0,66,0.00,,CLR,0.00,VWS V14.01,2013-05-27 17:40:00,
2013-05-27 12:41:00,84.2,71.2,29.97,SW,231,0.0,0.0,65,0.00,,OVC049,0.00,VWS V14.01,2013-05-27 17:41:00,
2013-05-27 12:46:00,84.2,70.7,29.97,SW,231,0.0,0.0,64,0.00,,OVC049,0.00,VWS V14.01,2013-05-27 17:46:00,
2013-05-27 12:50:00,83.6,70.6,29.97,SW,231,0.0,0.0,65,0.00,,CLR,0.00,VWS V14.01,2013-05-27 17:50:00,
2013-05-27 12:51:00,84.4,70.9,29.97,WNW,296,0.0,0.0,64,0.00,,OVC049,0.00,VWS V14.01,2013-05-27 17:51:00,
2013-05-27 12:56:00,84.8,70.8,29.97,WNW,292,0.0,1.0,63,0.00,,OVC049,0.00,VWS V14.01,2013-05-27 17:56:00,
2013-05-27 13:00:00,84.2,70.7,29.97,SW,231,0.0,1.0,64,0.00,,CLR,0.00,VWS V14.01,2013-05-27 18:00:00,
2013-05-27 13:01:00,84.8,71.7,29.96,WNW,292,0.0,0.0,65,0.00,,OVC049,0.00,VWS V14.01,2013-05-27 18:01:00,
2013-05-27 13:06:00,85.2,72.6,29.96,West,277,0.0,1.0,66,0.00,,OVC055,0.00,VWS V14.01,2013-05-27 18:06:00,
2013-05-27 13:10:00,84.8,70.3,29.97,WNW,292,0.0,1.0,62,0.00,,CLR,0.00,VWS V14.01,2013-05-27 18:10:00,
2013-05-27 13:11:00,85.6,71.1,29.96,West,277,0.0,1.0,62,0.00,,OVC055,0.00,VWS V14.01,2013-05-27 18:11:00,
2013-05-27 13:16:00,85.8,71.3,29.95,NE,34,0.0,1.0,62,0.00,,OVC055,0.00,VWS V14.01,2013-05-27 18:16:00,
2013-05-27 13:20:00,85.2,71.2,29.96,West,277,0.0,1.0,63,0.00,,CLR,0.00,VWS V14.01,2013-05-27 18:20:00,
2013-05-27 13:21:00,85.4,70.9,29.95,NE,34,0.0,0.0,62,0.00,,OVC055,0.00,VWS V14.01,2013-05-27 18:21:00,
2013-05-27 13:26:00,85.0,71.5,29.95,NE,34,0.0,0.0,64,0.00,,OVC055,0.00,VWS V14.01,2013-05-27 18:26:00,
2013-05-27 13:30:00,85.6,71.1,29.95,NE,34,0.0,1.0,62,0.00,,CLR,0.00,VWS V14.01,2013-05-27 18:30:00,
2013-05-27 13:31:00,85.2,72.6,29.95,NE,34,0.0,0.0,66,0.00,,OVC055,0.00,VWS V14.01,2013-05-27 18:31:00,
2013-05-27 13:36:00,85.4,70.4,29.95,SSW,209,0.0,0.0,61,0.00,,OVC055,0.00,VWS V14.01,2013-05-27 18:36:00,
2013-05-27 13:40:00,85.0,71.5,29.95,NE,34,0.0,0.0,64,0.00,,CLR,0.00,VWS V14.01,2013-05-27 18:40:00,
2013-05-27 13:41:00,85.4,71.8,29.95,SSW,211,0.0,0.0,64,0.00,,OVC055,0.00,VWS V14.01,2013-05-27 18:41:00,
2013-05-27 13:46:00,86.0,71.0,29.94,NNW,344,0.0,1.0,61,0.00,,OVC055,0.00,VWS V14.01,2013-05-27 18:46:00,
2013-05-27 13:50:00,85.4,70.9,29.95,SSW,209,0.0,0.0,62,0.00,,CLR,0.00,VWS V14.01,2013-05-27 18:50:00,
2013-05-27 13:51:00,86.7,72.6,29.94,NNW,344,0.0,0.0,63,0.00,,OVC055,0.00,VWS V14.01,2013-05-27 18:51:00,
2013-05-27 13:56:00,87.5,72.9,29.94,NNW,344,0.0,1.0,62,0.00,,OVC055,0.00,VWS V14.01,2013-05-27 18:56:00,
2013-05-27 14:00:00,86.0,71.0,29.94,NNW,344,0.0,1.0,61,0.00,,CLR,0.00,VWS V14.01,2013-05-27 19:00:00,
2013-05-27 14:01:00,88.1,74.9,29.93,NNW,344,0.0,0.0,65,0.00,,OVC055,0.00,VWS V14.01,2013-05-27 19:01:00,
2013-05-27 14:06:00,88.5,71.8,29.93,WNW,297,0.0,1.0,58,0.00,,BKN080,0.00,VWS V14.01,2013-05-27 19:06:00,
2013-05-27 14:10:00,87.7,72.6,29.94,NNW,344,0.0,1.0,61,0.00,,CLR,0.00,VWS V14.01,2013-05-27 19:10:00,
2013-05-27 14:11:00,88.5,73.8,29.93,WNW,289,0.0,0.0,62,0.00,,BKN080,0.00,VWS V14.01,2013-05-27 19:11:00,
2013-05-27 14:16:00,88.1,72.0,29.92,WNW,288,0.0,0.0,59,0.00,,BKN080,0.00,VWS V14.01,2013-05-27 19:16:00,
2013-05-27 14:20:00,88.5,71.3,29.93,WNW,297,0.0,1.0,57,0.00,,CLR,0.00,VWS V14.01,2013-05-27 19:20:00,
2013-05-27 14:21:00,87.9,74.7,29.92,ENE,77,0.0,1.0,65,0.00,,BKN080,0.00,VWS V14.01,2013-05-27 19:21:00,
2013-05-27 14:26:00,87.5,70.4,29.92,ENE,74,0.0,1.0,57,0.00,,BKN080,0.00,VWS V14.01,2013-05-27 19:26:00,
2013-05-27 14:30:00,88.1,70.4,29.92,NW,321,0.0,0.0,56,0.00,,CLR,0.00,VWS V14.01,2013-05-27 19:30:00,
2013-05-27 14:31:00,87.1,71.0,29.92,NNE,26,0.0,0.0,59,0.00,,BKN080,0.00,VWS V14.01,2013-05-27 19:31:00,
2013-05-27 14:36:00,86.9,71.8,29.92,SSW,192,0.0,0.0,61,0.00,,BKN080,0.00,VWS V14.01,2013-05-27 19:36:00,
2013-05-27 14:40:00,87.5,70.9,29.92,ENE,74,0.0,1.0,58,0.00,,CLR,0.00,VWS V14.01,2013-05-27 19:40:00,
2013-05-27 14:41:00,87.1,70.5,29.92,SW,218,0.0,0.0,58,0.00,,BKN080,0.00,VWS V14.01,2013-05-27 19:41:00,
2013-05-27 14:46:00,87.5,71.4,29.91,WSW,254,0.0,0.0,59,0.00,,BKN080,0.00,VWS V14.01,2013-05-27 19:46:00,
2013-05-27 14:50:00,86.9,71.3,29.92,SSW,192,0.0,0.0,60,0.00,,CLR,0.00,VWS V14.01,2013-05-27 19:50:00,
2013-05-27 14:51:00,87.7,72.1,29.91,WSW,250,0.0,0.0,60,0.00,,BKN080,0.00,VWS V14.01,2013-05-27 19:51:00,
2013-05-27 14:56:00,87.7,72.1,29.91,West,269,0.0,0.0,60,0.00,,BKN080,0.00,VWS V14.01,2013-05-27 19:56:00,
2013-05-27 15:00:00,87.5,70.9,29.91,WSW,254,0.0,1.0,58,0.00,,CLR,0.00,VWS V14.01,2013-05-27 20:00:00,
2013-05-27 15:01:00,87.7,70.6,29.91,West,275,0.0,1.0,57,0.00,,BKN080,0.00,VWS V14.01,2013-05-27 20:01:00,
2013-05-27 15:06:00,87.5,71.4,29.91,WSW,248,0.0,1.0,59,0.00,,SCT075,0.00,VWS V14.01,2013-05-27 20:06:00,
2013-05-27 15:10:00,87.9,72.3,29.91,West,269,0.0,0.0,60,0.00,,CLR,0.00,VWS V14.01,2013-05-27 20:10:00,
2013-05-27 15:11:00,87.5,71.4,29.91,WSW,246,0.0,0.0,59,0.00,,SCT075,0.00,VWS V14.01,2013-05-27 20:11:00,
2013-05-27 15:16:00,87.5,72.4,29.90,WSW,248,0.0,0.0,61,0.00,,SCT075,0.00,VWS V14.01,2013-05-27 20:16:00,
2013-05-27 15:20:00,87.3,70.7,29.91,WSW,248,0.0,1.0,58,0.00,,CLR,0.00,VWS V14.01,2013-05-27 20:20:00,
2013-05-27 15:21:00,87.7,71.6,29.90,West,265,0.0,0.0,59,0.00,,SCT075,0.00,VWS V14.01,2013-05-27 20:21:00,
2013-05-27 15:26:00,88.1,71.0,29.90,West,273,0.0,0.0,57,0.00,,SCT075,0.00,VWS V14.01,2013-05-27 20:26:00,
2013-05-27 15:30:00,87.5,72.9,29.90,WSW,249,0.0,0.0,62,0.00,,CLR,0.00,VWS V14.01,2013-05-27 20:30:00,
2013-05-27 15:31:00,87.9,70.3,29.89,West,259,0.0,0.0,56,0.00,,SCT075,0.00,VWS V14.01,2013-05-27 20:31:00,
2013-05-27 15:36:00,87.9,70.8,29.89,West,281,0.0,0.0,57,0.00,,SCT075,0.00,VWS V14.01,2013-05-27 20:36:00,
2013-05-27 15:40:00,88.1,72.5,29.90,West,262,0.0,0.0,60,0.00,,CLR,0.00,VWS V14.01,2013-05-27 20:40:00,
2013-05-27 15:41:00,88.1,72.5,29.89,NW,311,0.0,0.0,60,0.00,,SCT075,0.00,VWS V14.01,2013-05-27 20:41:00,
2013-05-27 15:46:00,87.9,72.3,29.89,WNW,297,0.0,0.0,60,0.00,,SCT075,0.00,VWS V14.01,2013-05-27 20:46:00,
2013-05-27 15:50:00,87.9,70.8,29.89,WSW,254,0.0,0.0,57,0.00,,CLR,0.00,VWS V14.01,2013-05-27 20:50:00,
2013-05-27 15:51:00,87.5,72.4,29.89,WNW,282,0.0,0.0,61,0.00,,SCT075,0.00,VWS V14.01,2013-05-27 20:51:00,
2013-05-27 15:56:00,87.5,71.9,29.89,WNW,300,0.0,0.0,60,0.00,,SCT075,0.00,VWS V14.01,2013-05-27 20:56:00,
2013-05-27 16:00:00,87.9,72.3,29.89,WNW,295,0.0,0.0,60,0.00,,CLR,0.00,VWS V14.01,2013-05-27 21:00:00,
2013-05-27 16:01:00,87.1,70.5,29.89,West,280,0.0,0.0,58,0.00,,SCT075,0.00,VWS V14.01,2013-05-27 21:01:00,
2013-05-27 16:06:00,86.5,71.0,29.89,WNW,284,0.0,0.0,60,0.00,,SCT043,0.00,VWS V14.01,2013-05-27 21:06:00,
2013-05-27 16:10:00,87.5,71.4,29.89,WNW,291,0.0,0.0,59,0.00,,CLR,0.00,VWS V14.01,2013-05-27 21:10:00,
2013-05-27 16:11:00,86.0,71.5,29.89,WNW,289,0.0,0.0,62,0.00,,SCT043,0.00,VWS V14.01,2013-05-27 21:11:00,
2013-05-27 16:16:00,85.4,70.9,29.89,WNW,288,0.0,0.0,62,0.00,,SCT043,0.00,VWS V14.01,2013-05-27 21:16:00,
2013-05-27 16:20:00,86.5,71.5,29.89,WNW,288,0.0,0.0,61,0.00,,CLR,0.00,VWS V14.01,2013-05-27 21:20:00,
2013-05-27 16:21:00,85.0,70.5,29.88,WNW,290,0.0,0.0,62,0.00,,SCT043,0.00,VWS V14.01,2013-05-27 21:21:00,
2013-05-27 16:26:00,85.2,71.7,29.88,WNW,283,0.0,0.0,64,0.00,,SCT043,0.00,VWS V14.01,2013-05-27 21:26:00,
2013-05-27 16:30:00,85.2,70.7,29.88,WNW,292,0.0,0.0,62,0.00,,CLR,0.00,VWS V14.01,2013-05-27 21:30:00,
2013-05-27 16:31:00,85.6,71.6,29.88,WSW,251,0.0,0.0,63,0.00,,SCT043,0.00,VWS V14.01,2013-05-27 21:31:00,
2013-05-27 16:36:00,85.4,71.4,29.88,SW,229,0.0,0.0,63,0.00,,SCT043,0.00,VWS V14.01,2013-05-27 21:36:00,
2013-05-27 16:40:00,85.4,71.4,29.88,West,261,0.0,0.0,63,0.00,,CLR,0.00,VWS V14.01,2013-05-27 21:40:00,
2013-05-27 16:41:00,85.0,72.4,29.88,NW,319,0.0,0.0,66,0.00,,SCT043,0.00,VWS V14.01,2013-05-27 21:41:00,
2013-05-27 16:46:00,84.8,70.8,29.88,SW,223,0.0,0.0,63,0.00,,SCT043,0.00,VWS V14.01,2013-05-27 21:46:00,
2013-05-27 16:50:00,85.4,71.8,29.88,SW,234,0.0,0.0,64,0.00,,CLR,0.00,VWS V14.01,2013-05-27 21:50:00,
2013-05-27 16:51:00,84.8,72.2,29.88,SW,220,0.0,0.0,66,0.00,,SCT043,0.00,VWS V14.01,2013-05-27 21:51:00,
2013-05-27 16:56:00,85.0,71.0,29.88,SW,221,0.0,0.0,63,0.00,,SCT043,0.00,VWS V14.01,2013-05-27 21:56:00,
2013-05-27 17:00:00,84.8,70.8,29.88,SW,216,0.0,0.0,63,0.00,,CLR,0.00,VWS V14.01,2013-05-27 22:00:00,
2013-05-27 17:01:00,85.4,70.9,29.88,SW,232,0.0,0.0,62,0.00,,SCT043,0.00,VWS V14.01,2013-05-27 22:01:00,
2013-05-27 17:06:00,85.6,70.6,29.87,SW,221,0.0,0.0,61,0.00,,BKN075,0.00,VWS V14.01,2013-05-27 22:06:00,
2013-05-27 17:10:00,85.2,71.2,29.88,SW,220,0.0,0.0,63,0.00,,CLR,0.00,VWS V14.01,2013-05-27 22:10:00,
2013-05-27 17:11:00,85.6,70.6,29.87,SW,216,0.0,0.0,61,0.00,,BKN075,0.00,VWS V14.01,2013-05-27 22:11:00,
2013-05-27 17:16:00,85.2,70.2,29.87,SW,214,0.0,0.0,61,0.00,,BKN075,0.00,VWS V14.01,2013-05-27 22:16:00,
2013-05-27 17:20:00,85.6,70.6,29.87,SW,221,0.0,0.0,61,0.00,,CLR,0.00,VWS V14.01,2013-05-27 22:20:00,
2013-05-27 17:21:00,84.8,70.3,29.86,SW,215,0.0,0.0,62,0.00,,BKN075,0.00,VWS V14.01,2013-05-27 22:21:00,
2013-05-27 17:26:00,84.8,71.3,29.86,SW,215,0.0,0.0,64,0.00,,BKN075,0.00,VWS V14.01,2013-05-27 22:26:00,
2013-05-27 17:30:00,85.2,70.2,29.86,SW,215,0.0,0.0,61,0.00,,CLR,0.00,VWS V14.01,2013-05-27 22:30:00,
2013-05-27 17:31:00,85.0,70.1,29.86,SSW,198,0.0,0.0,61,0.00,,BKN075,0.00,VWS V14.01,2013-05-27 22:31:00,
2013-05-27 17:36:00,85.0,70.1,29.86,NNW,335,0.0,0.0,61,0.00,,BKN075,0.00,VWS V14.01,2013-05-27 22:36:00,
2013-05-27 17:40:00,84.8,71.7,29.86,SW,215,0.0,0.0,65,0.00,,CLR,0.00,VWS V14.01,2013-05-27 22:40:00,
2013-05-27 17:41:00,84.8,70.3,29.86,NNW,328,0.0,0.0,62,0.00,,BKN075,0.00,VWS V14.01,2013-05-27 22:41:00,
2013-05-27 17:46:00,84.8,71.3,29.86,NNW,328,0.0,0.0,64,0.00,,BKN075,0.00,VWS V14.01,2013-05-27 22:46:00,
2013-05-27 17:50:00,85.0,70.1,29.86,NW,305,0.0,0.0,61,0.00,,CLR,0.00,VWS V14.01,2013-05-27 22:50:00,
2013-05-27 17:51:00,85.0,71.0,29.85,NNW,327,0.0,0.0,63,0.00,,BKN075,0.00,VWS V14.01,2013-05-27 22:51:00,
2013-05-27 17:56:00,85.0,70.5,29.85,SSW,207,0.0,0.0,62,0.00,,BKN075,0.00,VWS V14.01,2013-05-27 22:56:00,
2013-05-27 18:00:00,84.8,71.7,29.85,NNW,328,0.0,0.0,65,0.00,,CLR,0.00,VWS V14.01,2013-05-27 23:00:00,
2013-05-27 18:01:00,84.8,70.8,29.85,SW,225,0.0,0.0,63,0.00,,BKN075,0.00,VWS V14.01,2013-05-27 23:01:00,
2013-05-27 18:06:00,84.6,71.1,29.85,WSW,248,0.0,0.0,64,0.00,,BKN060,0.00,VWS V14.01,2013-05-27 23:06:00,
2013-05-27 18:10:00,85.0,70.5,29.85,SW,227,0.0,0.0,62,0.00,,CLR,0.00,VWS V14.01,2013-05-27 23:10:00,
2013-05-27 18:11:00,84.6,70.2,29.85,WSW,238,0.0,0.0,62,0.00,,BKN060,0.00,VWS V14.01,2013-05-27 23:11:00,
2013-05-27 18:16:00,84.4,70.0,29.85,SSE,153,0.0,0.0,62,0.00,,BKN060,0.00,VWS V14.01,2013-05-27 23:16:00,
2013-05-27 18:20:00,84.6,70.6,29.85,WSW,244,0.0,0.0,63,0.00,,CLR,0.00,VWS V14.01,2013-05-27 23:20:00,
2013-05-27 18:21:00,84.2,70.2,29.84,North,360,0.0,0.0,63,0.00,,BKN060,0.00,VWS V14.01,2013-05-27 23:21:00,
2013-05-27 18:26:00,84.0,70.1,29.84,West,274,0.0,0.0,63,0.00,,BKN060,0.00,VWS V14.01,2013-05-27 23:26:00,
2013-05-27 18:30:00,84.4,70.0,29.84,North,360,0.0,0.0,62,0.00,,CLR,0.00,VWS V14.01,2013-05-27 23:30:00,
2013-05-27 18:31:00,84.0,70.1,29.84,WSW,258,0.0,0.0,63,0.00,,BKN060,0.00,VWS V14.01,2013-05-27 23:31:00,
2013-05-27 18:36:00,83.8,70.3,29.85,West,259,0.0,0.0,64,0.00,,BKN060,0.00,VWS V14.01,2013-05-27 23:36:00,
2013-05-27 18:40:00,84.0,70.1,29.84,West,274,0.0,0.0,63,0.00,,CLR,0.00,VWS V14.01,2013-05-27 23:40:00,
2013-05-27 18:41:00,83.8,69.9,29.85,NNW,331,0.0,0.0,63,0.00,,BKN060,0.00,VWS V14.01,2013-05-27 23:41:00,
2013-05-27 18:46:00,83.8,69.9,29.85,SW,225,0.0,0.0,63,0.00,,BKN060,0.00,VWS V14.01,2013-05-27 23:46:00,
2013-05-27 18:50:00,83.8,70.3,29.85,West,259,0.0,0.0,64,0.00,,CLR,0.00,VWS V14.01,2013-05-27 23:50:00,
2013-05-27 18:51:00,83.6,70.1,29.84,SW,221,0.0,0.0,64,0.00,,BKN060,0.00,VWS V14.01,2013-05-27 23:51:00,
2013-05-27 18:56:00,83.5,69.6,29.84,SW,218,0.0,0.0,63,0.00,,BKN060,0.00,VWS V14.01,2013-05-27 23:56:00,
2013-05-27 19:00:00,83.8,70.3,29.84,SW,225,0.0,0.0,64,0.00,,CLR,0.00,VWS V14.01,2013-05-28 00:00:00,
2013-05-27 19:01:00,83.1,69.7,29.84,SW,218,0.0,0.0,64,0.00,,BKN060,0.00,VWS V14.01,2013-05-28 00:01:00,
2013-05-27 19:06:00,82.9,69.9,29.84,NW,324,0.0,0.0,65,0.00,,SCT070,0.00,VWS V14.01,2013-05-28 00:06:00,
2013-05-27 19:10:00,83.3,69.9,29.84,SW,218,0.0,0.0,64,0.00,,CLR,0.00,VWS V14.01,2013-05-28 00:10:00,
2013-05-27 19:11:00,82.7,70.2,29.84,NW,324,0.0,0.0,66,0.00,,SCT070,0.00,VWS V14.01,2013-05-28 00:11:00,
2013-05-27 19:16:00,82.5,69.1,29.84,South,172,0.0,0.0,64,0.00,,SCT070,0.00,VWS V14.01,2013-05-28 00:16:00,
2013-05-27 19:20:00,82.9,69.5,29.84,NW,324,0.0,0.0,64,0.00,,CLR,0.00,VWS V14.01,2013-05-28 00:20:00,
2013-05-27 19:21:00,82.1,68.7,29.85,WNW,288,0.0,0.0,64,0.00,,SCT070,0.00,VWS V14.01,2013-05-28 00:21:00,
2013-05-27 19:26:00,81.9,69.4,29.85,WNW,289,0.0,0.0,66,0.00,,SCT070,0.00,VWS V14.01,2013-05-28 00:26:00,
2013-05-27 19:30:00,82.3,69.4,29.85,South,172,0.0,0.0,65,0.00,,CLR,0.00,VWS V14.01,2013-05-28 00:30:00,
2013-05-27 19:31:00,81.7,69.2,29.85,WNW,290,0.0,0.0,66,0.00,,SCT070,0.00,VWS V14.01,2013-05-28 00:31:00,
2013-05-27 19:36:00,81.5,69.1,29.86,WNW,290,0.0,0.0,66,0.00,,SCT070,0.00,VWS V14.01,2013-05-28 00:36:00,
2013-05-27 19:40:00,81.9,69.0,29.85,WNW,290,0.0,0.0,65,0.00,,CLR,0.00,VWS V14.01,2013-05-28 00:40:00,
2013-05-27 19:41:00,81.3,69.3,29.86,WNW,290,0.0,0.0,67,0.00,,SCT070,0.00,VWS V14.01,2013-05-28 00:41:00,
2013-05-27 19:46:00,81.1,69.6,29.86,WNW,290,0.0,0.0,68,0.00,,SCT070,0.00,VWS V14.01,2013-05-28 00:46:00,
2013-05-27 19:50:00,81.3,68.9,29.86,WNW,289,0.0,0.0,66,0.00,,CLR,0.00,VWS V14.01,2013-05-28 00:50:00,
2013-05-27 19:51:00,80.9,69.4,29.85,WNW,290,0.0,0.0,68,0.00,,SCT070,0.00,VWS V14.01,2013-05-28 00:51:00,
2013-05-27 19:56:00,80.7,69.2,29.85,NNW,337,0.0,0.0,68,0.00,,SCT070,0.00,VWS V14.01,2013-05-28 00:56:00,
2013-05-27 20:00:00,81.1,69.6,29.85,WNW,290,0.0,0.0,68,0.00,,CLR,0.00,VWS V14.01,2013-05-28 01:00:00,
2013-05-27 20:01:00,80.6,69.5,29.85,NNW,340,0.0,0.0,69,0.00,,SCT070,0.00,VWS V14.01,2013-05-28 01:01:00,
2013-05-27 20:06:00,80.4,69.3,29.86,NNW,338,0.0,0.0,69,0.00,,FEW035,0.00,VWS V14.01,2013-05-28 01:06:00,
2013-05-27 20:10:00,80.7,69.2,29.85,NNW,337,0.0,0.0,68,0.00,,CLR,0.00,VWS V14.01,2013-05-28 01:10:00,
2013-05-27 20:11:00,80.2,69.1,29.86,NNW,338,0.0,0.0,69,0.00,,FEW035,0.00,VWS V14.01,2013-05-28 01:11:00,
2013-05-27 20:16:00,80.0,68.9,29.86,NNW,338,0.0,0.0,69,0.00,,FEW035,0.00,VWS V14.01,2013-05-28 01:16:00,
2013-05-27 20:20:00,80.4,69.3,29.86,NNW,338,0.0,0.0,69,0.00,,CLR,0.00,VWS V14.01,2013-05-28 01:20:00,
2013-05-27 20:21:00,79.8,69.2,29.86,NNW,338,0.0,0.0,70,0.00,,FEW035,0.00,VWS V14.01,2013-05-28 01:21:00,
2013-05-27 20:26:00,79.8,69.2,29.86,NNW,338,0.0,0.0,70,0.00,,FEW035,0.00,VWS V14.01,2013-05-28 01:26:00,
2013-05-27 20:30:00,80.0,68.9,29.86,NNW,338,0.0,0.0,69,0.00,,CLR,0.00,VWS V14.01,2013-05-28 01:30:00,
2013-05-27 20:31:00,79.4,68.8,29.86,NNW,338,0.0,0.0,70,0.00,,FEW035,0.00,VWS V14.01,2013-05-28 01:31:00,
2013-05-27 20:36:00,79.4,69.2,29.86,NNW,338,0.0,0.0,71,0.00,,FEW035,0.00,VWS V14.01,2013-05-28 01:36:00,
2013-05-27 20:40:00,79.6,69.0,29.86,NNW,338,0.0,0.0,70,0.00,,CLR,0.00,VWS V14.01,2013-05-28 01:40:00,
2013-05-27 20:41:00,79.3,69.1,29.86,NNW,338,0.0,0.0,71,0.00,,FEW035,0.00,VWS V14.01,2013-05-28 01:41:00,
2013-05-27 20:46:00,79.1,68.9,29.86,NNW,338,0.0,0.0,71,0.00,,FEW035,0.00,VWS V14.01,2013-05-28 01:46:00,
2013-05-27 20:50:00,79.3,69.1,29.86,NNW,338,0.0,0.0,71,0.00,,CLR,0.00,VWS V14.01,2013-05-28 01:50:00,
2013-05-27 20:51:00,78.9,68.7,29.87,NNW,338,0.0,0.0,71,0.00,,FEW035,0.00,VWS V14.01,2013-05-28 01:51:00,
2013-05-27 20:56:00,78.7,68.1,29.87,NNW,338,0.0,0.0,70,0.00,,FEW035,0.00,VWS V14.01,2013-05-28 01:56:00,
2013-05-27 21:00:00,78.9,68.7,29.87,NNW,338,0.0,0.0,71,0.00,,CLR,0.00,VWS V14.01,2013-05-28 02:00:00,
2013-05-27 21:01:00,78.5,68.3,29.87,NNW,338,0.0,0.0,71,0.00,,FEW035,0.00,VWS V14.01,2013-05-28 02:01:00,
2013-05-27 21:06:00,78.5,68.3,29.87,NNW,338,0.0,0.0,71,0.00,,CLR,0.00,VWS V14.01,2013-05-28 02:06:00,
2013-05-27 21:10:00,78.7,68.5,29.87,NNW,338,0.0,0.0,71,0.00,,CLR,0.00,VWS V14.01,2013-05-28 02:10:00,
2013-05-27 21:11:00,78.3,68.1,29.87,NNW,338,0.0,0.0,71,0.00,,CLR,0.00,VWS V14.01,2013-05-28 02:11:00,
2013-05-27 21:16:00,78.1,68.3,29.87,NNW,338,0.0,0.0,72,0.00,,CLR,0.00,VWS V14.01,2013-05-28 02:16:00,
2013-05-27 21:20:00,78.3,68.1,29.87,NNW,338,0.0,0.0,71,0.00,,CLR,0.00,VWS V14.01,2013-05-28 02:20:00,
2013-05-27 21:21:00,78.0,68.2,29.87,NNW,338,0.0,0.0,72,0.00,,CLR,0.00,VWS V14.01,2013-05-28 02:21:00,
2013-05-27 21:26:00,77.8,68.1,29.87,NNW,338,0.0,0.0,72,0.00,,CLR,0.00,VWS V14.01,2013-05-28 02:26:00,
2013-05-27 21:30:00,78.1,68.3,29.87,NNW,338,0.0,0.0,72,0.00,,CLR,0.00,VWS V14.01,2013-05-28 02:30:00,
2013-05-27 21:31:00,77.6,68.3,29.87,NNW,338,0.0,0.0,73,0.00,,CLR,0.00,VWS V14.01,2013-05-28 02:31:00,
2013-05-27 21:36:00,77.6,68.3,29.87,NNW,338,0.0,0.0,73,0.00,,CLR,0.00,VWS V14.01,2013-05-28 02:36:00,
2013-05-27 21:40:00,77.8,68.1,29.87,NNW,338,0.0,0.0,72,0.00,,CLR,0.00,VWS V14.01,2013-05-28 02:40:00,
2013-05-27 21:41:00,77.4,68.1,29.87,NNW,338,0.0,0.0,73,0.00,,CLR,0.00,VWS V14.01,2013-05-28 02:41:00,
2013-05-27 21:46:00,77.2,67.9,29.87,NNW,338,0.0,0.0,73,0.00,,CLR,0.00,VWS V14.01,2013-05-28 02:46:00,
2013-05-27 21:50:00,77.4,68.1,29.87,NNW,338,0.0,0.0,73,0.00,,CLR,0.00,VWS V14.01,2013-05-28 02:50:00,
2013-05-27 21:51:00,77.1,67.8,29.88,NNW,338,0.0,0.0,73,0.00,,CLR,0.00,VWS V14.01,2013-05-28 02:51:00,
2013-05-27 21:56:00,76.9,67.6,29.88,NNW,338,0.0,0.0,73,0.00,,CLR,0.00,VWS V14.01,2013-05-28 02:56:00,
2013-05-27 22:00:00,77.2,67.9,29.88,NNW,338,0.0,0.0,73,0.00,,CLR,0.00,VWS V14.01,2013-05-28 03:00:00,
2013-05-27 22:01:00,76.7,67.0,29.88,NNW,338,0.0,0.0,72,0.00,,CLR,0.00,VWS V14.01,2013-05-28 03:01:00,
2013-05-27 22:06:00,76.5,67.2,29.89,NNW,338,0.0,0.0,73,0.00,,CLR,0.00,VWS V14.01,2013-05-28 03:06:00,
2013-05-27 22:10:00,76.9,67.6,29.88,NNW,338,0.0,0.0,73,0.00,,CLR,0.00,VWS V14.01,2013-05-28 03:10:00,
2013-05-27 22:11:00,76.5,67.2,29.89,NNW,338,0.0,0.0,73,0.00,,CLR,0.00,VWS V14.01,2013-05-28 03:11:00,
2013-05-27 22:16:00,76.3,67.0,29.89,NNW,338,0.0,0.0,73,0.00,,CLR,0.00,VWS V14.01,2013-05-28 03:16:00,
2013-05-27 22:20:00,76.5,67.2,29.89,NNW,338,0.0,0.0,73,0.00,,CLR,0.00,VWS V14.01,2013-05-28 03:20:00,
2013-05-27 22:21:00,76.2,66.9,29.89,NNW,338,0.0,0.0,73,0.00,,CLR,0.00,VWS V14.01,2013-05-28 03:21:00,
2013-05-27 22:25:00,76.0,66.7,29.89,NNW,338,0.0,0.0,73,0.00,,CLR,0.00,VWS V14.01,2013-05-28 03:25:00,
2013-05-27 22:30:00,76.0,66.7,29.89,NNW,340,0.0,0.0,73,0.00,,CLR,0.00,VWS V14.01,2013-05-28 03:30:00,
2013-05-27 22:35:00,75.8,66.9,29.90,NNW,342,0.0,0.0,74,0.00,,CLR,0.00,VWS V14.01,2013-05-28 03:35:00,
2013-05-27 22:40:00,75.8,67.3,29.90,NNW,342,0.0,0.0,75,0.00,,CLR,0.00,VWS V14.01,2013-05-28 03:40:00,
2013-05-27 22:45:00,75.8,67.3,29.90,NNW,342,0.0,0.0,75,0.00,,CLR,0.00,VWS V14.01,2013-05-28 03:45:00,
2013-05-27 22:50:00,75.6,67.5,29.91,NNW,342,0.0,0.0,76,0.00,,CLR,0.00,VWS V14.01,2013-05-28 03:50:00,
2013-05-27 22:55:00,75.6,67.5,29.91,NNW,343,0.0,0.0,76,0.00,,CLR,0.00,VWS V14.01,2013-05-28 03:55:00,
2013-05-27 23:00:00,75.5,67.4,29.91,NNW,339,0.0,0.0,76,0.00,,CLR,0.00,VWS V14.01,2013-05-28 04:00:00,
2013-05-27 23:01:00,75.5,67.4,29.91,NNW,339,0.0,0.0,76,0.00,,CLR,0.00,VWS V14.01,2013-05-28 04:01:00,
2013-05-27 23:06:00,75.3,67.6,29.90,NNW,339,0.0,0.0,77,0.00,,CLR,0.00,VWS V14.01,2013-05-28 04:06:00,
2013-05-27 23:10:00,75.5,67.4,29.91,NNW,342,0.0,0.0,76,0.00,,CLR,0.00,VWS V14.01,2013-05-28 04:10:00,
2013-05-27 23:11:00,75.3,67.6,29.90,North,360,0.0,0.0,77,0.00,,CLR,0.00,VWS V14.01,2013-05-28 04:11:00,
2013-05-27 23:16:00,75.1,67.8,29.90,North,360,0.0,0.0,78,0.00,,CLR,0.00,VWS V14.01,2013-05-28 04:16:00,
2013-05-27 23:20:00,75.3,67.6,29.90,NNW,339,0.0,0.0,77,0.00,,CLR,0.00,VWS V14.01,2013-05-28 04:20:00,
2013-05-27 23:21:00,75.1,67.8,29.90,North,360,0.0,0.0,78,0.00,,CLR,0.00,VWS V14.01,2013-05-28 04:21:00,
2013-05-27 23:26:00,74.9,67.9,29.90,NNE,28,0.0,0.0,79,0.00,,CLR,0.00,VWS V14.01,2013-05-28 04:26:00,
2013-05-27 23:30:00,75.1,67.8,29.90,North,360,0.0,0.0,78,0.00,,CLR,0.00,VWS V14.01,2013-05-28 04:30:00,
2013-05-27 23:31:00,74.9,67.9,29.90,NNE,15,0.0,0.0,79,0.00,,CLR,0.00,VWS V14.01,2013-05-28 04:31:00,
2013-05-27 23:36:00,74.8,68.2,29.90,NNE,15,0.0,0.0,80,0.00,,CLR,0.00,VWS V14.01,2013-05-28 04:36:00,
2013-05-27 23:40:00,74.9,67.9,29.90,NNE,28,0.0,0.0,79,0.00,,CLR,0.00,VWS V14.01,2013-05-28 04:40:00,
2013-05-27 23:41:00,74.8,68.2,29.90,NNE,15,0.0,0.0,80,0.00,,CLR,0.00,VWS V14.01,2013-05-28 04:41:00,
2013-05-27 23:50:00,74.8,68.2,29.90,NNE,15,0.0,0.0,80,0.00,,CLR,0.00,VWS V14.01,2013-05-28 04:50:00,